Time;durP1;ratioP1;P1;durP2;ratioP2;P2;SDS_P1;SDS_P2;PMS_P1;PMS_P2;Temp;Humidity;BMP_temperature;BMP_pressure;BME280_temperature;BME280_humidity;BME280_pressure;Samples;Min_cycle;Max_cycle;Signal;HPM_P1;HPM_P2
2023/01/06 00:06:55;;;;;;;1999.90;999.90;;;10.70;99.90;;;;;;6650805;76;20211;-76
2023/01/06 00:16:55;;;;;;;1999.90;999.90;;;10.90;99.90;;;;;;6634873;89;20198;-76
2023/01/06 00:26:56;;;;;;;1999.90;999.90;;;10.90;99.90;;;;;;6635671;89;20197;-76
2023/01/06 00:36:56;;;;;;;1999.90;999.90;;;11.00;99.90;;;;;;6647727;89;20206;-76
2023/01/06 00:46:57;;;;;;;1999.90;999.90;;;11.10;99.90;;;;;;6636004;89;20216;-76
2023/01/06 00:56:58;;;;;;;1999.90;999.90;;;11.00;99.90;;;;;;6632401;89;20748;-76
2023/01/06 01:06:59;;;;;;;1999.90;999.90;;;11.00;99.90;;;;;;6629763;89;20216;-76
2023/01/06 01:17:00;;;;;;;1999.90;999.90;;;11.00;99.90;;;;;;6635731;89;20233;-76
2023/01/06 01:27:00;;;;;;;1999.90;999.90;;;10.90;99.90;;;;;;6631707;89;20635;-76
2023/01/06 01:37:01;;;;;;;1999.90;999.90;;;10.90;99.90;;;;;;6632212;89;20339;-76
2023/01/06 01:47:02;;;;;;;1999.90;999.90;;;10.80;99.90;;;;;;6629436;89;20280;-76
2023/01/06 01:57:13;;;;;;;1999.90;999.90;;;10.70;99.90;;;;;;6630958;89;20224;-75
2023/01/06 02:07:14;;;;;;;1999.90;999.90;;;10.60;99.90;;;;;;6630500;89;20335;-76
2023/01/06 02:17:20;;;;;;;1999.90;999.90;;;10.60;99.90;;;;;;6631163;89;20181;-76
2023/01/06 02:27:59;;;;;;;1999.90;999.90;;;10.60;99.90;;;;;;6633427;89;20268;-76
2023/01/06 02:38:33;;;;;;;1999.90;999.90;;;10.70;99.90;;;;;;6632153;89;20204;-76
2023/01/06 02:48:48;;;;;;;1999.90;999.90;;;10.80;99.90;;;;;;6630937;89;20182;-74
2023/01/06 02:59:08;;;;;;;1999.90;999.90;;;10.80;99.90;;;;;;6641017;88;20220;-75
2023/01/06 03:09:15;;;;;;;1999.90;999.90;;;10.80;99.90;;;;;;6636485;89;20226;-75
2023/01/06 03:19:16;;;;;;;1999.90;999.90;;;10.70;99.90;;;;;;6635440;89;20202;-75
2023/01/06 03:29:17;;;;;;;1999.90;999.90;;;10.60;99.90;;;;;;6629027;88;20201;-76
2023/01/06 03:39:31;;;;;;;1999.90;999.90;;;10.60;99.90;;;;;;6631725;89;20666;-75
2023/01/06 03:49:49;;;;;;;1999.90;999.90;;;10.60;99.90;;;;;;6631709;89;20241;-76
2023/01/06 03:59:59;;;;;;;1999.90;999.90;;;10.70;99.90;;;;;;6626847;89;20645;-76
2023/01/06 04:10:00;;;;;;;1999.90;999.90;;;10.60;99.90;;;;;;6636256;88;20739;-76
2023/01/06 04:20:01;;;;;;;1999.90;999.90;;;10.50;99.90;;;;;;6630640;88;20245;-76
2023/01/06 04:30:02;;;;;;;1999.90;999.90;;;10.50;99.90;;;;;;6642970;88;20222;-75
2023/01/06 04:40:03;;;;;;;1999.90;999.90;;;10.40;99.90;;;;;;6635249;88;20316;-75
2023/01/06 04:50:04;;;;;;;1999.90;999.90;;;10.50;99.90;;;;;;6637358;89;20229;-75
2023/01/06 05:00:05;;;;;;;1999.90;999.90;;;10.40;99.90;;;;;;6654938;88;20189;-76
2023/01/06 05:10:07;;;;;;;1999.90;999.90;;;10.40;99.90;;;;;;6637399;89;20385;-76
2023/01/06 05:20:08;;;;;;;1999.90;999.90;;;10.50;99.90;;;;;;6636021;89;20193;-76
2023/01/06 05:30:09;;;;;;;1999.90;999.90;;;10.70;99.90;;;;;;6630850;89;20189;-75
2023/01/06 05:40:10;;;;;;;1999.90;999.90;;;10.80;99.90;;;;;;6628500;89;20620;-76
2023/01/06 05:50:10;;;;;;;1999.90;999.90;;;10.60;99.90;;;;;;6631071;88;20205;-76
2023/01/06 06:00:11;;;;;;;1999.90;999.90;;;10.60;99.90;;;;;;6631207;89;20215;-76
2023/01/06 06:10:12;;;;;;;1999.90;999.90;;;10.60;99.90;;;;;;6648423;77;20651;-77
2023/01/06 06:20:12;;;;;;;1999.90;999.90;;;10.60;99.90;;;;;;6656890;88;20271;-78
2023/01/06 06:30:13;;;;;;;1999.90;999.90;;;10.60;99.90;;;;;;6657946;88;20215;-78
2023/01/06 06:40:13;;;;;;;1999.90;999.90;;;10.50;99.90;;;;;;6658834;89;20246;-79
2023/01/06 06:50:14;;;;;;;1999.90;999.90;;;10.50;99.90;;;;;;6669435;88;20208;-79
2023/01/06 07:00:15;;;;;;;1999.90;999.90;;;10.40;99.90;;;;;;6656496;88;20270;-76
2023/01/06 07:10:16;;;;;;;1999.90;999.90;;;10.60;99.90;;;;;;6657212;88;20585;-79
2023/01/06 07:20:16;;;;;;;1999.90;999.90;;;10.60;99.90;;;;;;6673609;88;20217;-78
2023/01/06 07:30:17;;;;;;;1999.90;999.90;;;10.80;99.90;;;;;;6650599;89;20327;-78
2023/01/06 07:40:17;;;;;;;1999.90;999.90;;;10.90;99.90;;;;;;6654839;89;20803;-78
2023/01/06 07:50:18;;;;;;;1999.90;999.90;;;11.00;99.90;;;;;;6652988;88;20491;-77
2023/01/06 08:00:19;;;;;;;1999.90;999.90;;;11.00;99.90;;;;;;6679899;88;20195;-77
2023/01/06 08:10:19;;;;;;;1999.90;999.90;;;10.80;99.90;;;;;;6658021;88;20336;-77
2023/01/06 08:20:21;;;;;;;1999.90;999.90;;;10.80;99.90;;;;;;6675965;88;20196;-78
2023/01/06 08:30:22;;;;;;;1999.90;999.90;;;10.80;99.90;;;;;;6680483;88;21197;-76
2023/01/06 08:40:22;;;;;;;1999.90;999.90;;;10.80;99.90;;;;;;6669485;89;20237;-76
2023/01/06 08:50:23;;;;;;;1999.90;999.90;;;10.90;99.90;;;;;;6659807;89;20266;-77
2023/01/06 09:00:24;;;;;;;1999.90;999.90;;;10.90;99.90;;;;;;6661855;88;20246;-76
2023/01/06 09:10:24;;;;;;;1999.90;999.90;;;11.00;99.90;;;;;;6649368;88;20241;-77
2023/01/06 09:20:25;;;;;;;1999.90;999.90;;;11.20;99.90;;;;;;6635831;89;20261;-78
2023/01/06 09:30:26;;;;;;;1999.90;999.90;;;11.30;99.90;;;;;;6643745;89;20232;-78
2023/01/06 09:40:42;;;;;;;1999.90;999.90;;;11.50;99.90;;;;;;6644064;88;20597;-77
2023/01/06 09:50:47;;;;;;;1999.90;999.90;;;11.70;99.90;;;;;;6636509;88;21094;-77
2023/01/06 10:00:54;;;;;;;1999.90;999.90;;;11.80;99.90;;;;;;6639298;89;20184;-76
2023/01/06 10:11:32;;;;;;;1999.90;999.90;;;11.90;99.90;;;;;;6651035;88;20685;-77
2023/01/06 10:21:59;;;;;;;1999.90;999.90;;;12.10;99.90;;;;;;6664801;88;20192;-76
2023/01/06 10:32:01;;;;;;;1999.90;999.90;;;12.60;99.90;;;;;;6653721;88;20746;-75
2023/01/06 10:52:48;;;;;;;1999.90;999.90;;;12.70;99.90;;;;;;6652148;89;20224;-76
2023/01/06 11:02:51;;;;;;;1999.90;999.90;;;12.80;99.90;;;;;;6668510;88;20208;-77
2023/01/06 11:12:53;;;;;;;1999.90;999.90;;;12.50;99.90;;;;;;6649882;88;20194;-77
2023/01/06 11:22:53;;;;;;;1999.90;999.90;;;12.50;99.90;;;;;;6671167;88;20599;-77
2023/01/06 11:32:54;;;;;;;1999.90;999.90;;;12.40;99.90;;;;;;6656819;88;20181;-76
2023/01/06 11:42:59;;;;;;;1999.90;999.90;;;12.00;99.90;;;;;;6654305;88;20219;-77
2023/01/06 11:53:02;;;;;;;1999.90;999.90;;;12.10;99.90;;;;;;6656299;88;20205;-76
2023/01/06 12:03:29;;;;;;;1999.90;999.90;;;12.40;99.90;;;;;;6658509;88;20290;-76
2023/01/06 12:13:32;;;;;;;1999.90;999.90;;;12.20;99.90;;;;;;6662655;88;20297;-76
2023/01/06 12:23:35;;;;;;;1999.90;999.90;;;12.30;99.90;;;;;;6650558;88;20177;-76
2023/01/06 12:33:47;;;;;;;1999.90;999.90;;;12.60;99.90;;;;;;6647651;88;20193;-76
2023/01/06 12:44:05;;;;;;;1999.90;999.90;;;12.70;99.90;;;;;;6659450;88;20323;-76
2023/01/06 12:54:19;;;;;;;1999.90;999.90;;;12.80;99.90;;;;;;6653838;88;20188;-75
2023/01/06 13:04:22;;;;;;;1999.90;999.90;;;12.80;99.90;;;;;;6663552;88;20266;-75
2023/01/06 13:14:36;;;;;;;1999.90;999.90;;;13.00;99.90;;;;;;6652088;88;20201;-75
2023/01/06 13:24:47;;;;;;;1999.90;999.90;;;12.90;99.90;;;;;;6653084;88;20273;-76
2023/01/06 13:35:06;;;;;;;1999.90;999.90;;;12.80;99.90;;;;;;6666600;88;20228;-76
2023/01/06 13:45:15;;;;;;;1999.90;999.90;;;12.80;99.90;;;;;;6655290;88;20740;-76
2023/01/06 13:55:22;;;;;;;1999.90;999.90;;;12.70;99.90;;;;;;6660138;88;20239;-76
2023/01/06 14:05:23;;;;;;;1999.90;999.90;;;12.80;99.90;;;;;;6648242;88;20743;-75
2023/01/06 14:15:32;;;;;;;1999.90;999.90;;;12.80;99.90;;;;;;6651722;88;20184;-77
2023/01/06 14:25:38;;;;;;;1999.90;999.90;;;12.90;99.90;;;;;;6648190;88;20622;-76
2023/01/06 14:35:42;;;;;;;1999.90;999.90;;;13.00;99.90;;;;;;6646495;88;20246;-78
2023/01/06 14:45:43;;;;;;;1999.90;999.90;;;12.90;99.90;;;;;;6648991;88;20986;-77
2023/01/06 14:55:47;;;;;;;1999.90;999.90;;;12.80;99.90;;;;;;6658180;88;20274;-77
2023/01/06 15:05:48;;;;;;;1999.90;999.90;;;12.80;99.90;;;;;;6646003;88;20341;-77
2023/01/06 15:16:05;;;;;;;1999.90;999.90;;;12.80;99.90;;;;;;6645144;89;20443;-77
2023/01/06 15:26:14;;;;;;;1999.90;999.90;;;12.70;99.90;;;;;;6641260;88;20221;-77
2023/01/06 15:36:21;;;;;;;1999.90;999.90;;;12.70;99.90;;;;;;6643983;88;20340;-77
2023/01/06 15:46:22;;;;;;;1999.90;999.90;;;12.50;99.90;;;;;;6642306;88;20279;-77
2023/01/06 15:56:27;;;;;;;1999.90;999.90;;;12.50;99.90;;;;;;6643214;88;21054;-77
2023/01/06 16:06:29;;;;;;;1999.90;999.90;;;12.30;99.90;;;;;;6661832;88;20186;-78
2023/01/06 16:16:34;;;;;;;1999.90;999.90;;;12.30;99.90;;;;;;6629508;88;20248;-77
2023/01/06 16:26:44;;;;;;;1999.90;999.90;;;12.20;99.90;;;;;;6633405;88;20481;-79
2023/01/06 16:36:49;;;;;;;1999.90;999.90;;;12.10;99.90;;;;;;6623616;88;20219;-77
2023/01/06 16:46:49;;;;;;;1999.90;999.90;;;12.00;99.90;;;;;;6628369;89;20260;-76
2023/01/06 16:56:51;;;;;;;1999.90;999.90;;;11.90;99.90;;;;;;6636553;88;20186;-76
2023/01/06 17:06:51;;;;;;;1999.90;999.90;;;11.90;99.90;;;;;;6640090;88;20312;-78
2023/01/06 17:16:52;;;;;;;1999.90;999.90;;;11.80;99.90;;;;;;6648652;88;20265;-77
2023/01/06 17:27:20;;;;;;;1999.90;999.90;;;11.80;99.90;;;;;;6668693;88;20230;-78
2023/01/06 17:37:29;;;;;;;1999.90;999.90;;;11.70;99.90;;;;;;6654430;89;20516;-77
2023/01/06 17:47:44;;;;;;;1999.90;999.90;;;11.60;99.90;;;;;;6661911;88;20201;-79
2023/01/06 17:57:45;;;;;;;1999.90;999.90;;;11.60;99.90;;;;;;6644587;89;20200;-78
2023/01/06 18:07:46;;;;;;;1999.90;999.90;;;11.50;99.90;;;;;;6652213;88;20263;-78
2023/01/06 18:17:46;;;;;;;1999.90;999.90;;;11.40;99.90;;;;;;6657419;88;20564;-79
2023/01/06 18:27:49;;;;;;;1999.90;999.90;;;11.40;99.90;;;;;;6655963;88;20750;-78
2023/01/06 18:37:50;;;;;;;1999.90;999.90;;;11.30;99.90;;;;;;6658763;88;20196;-79
2023/01/06 18:47:58;;;;;;;1999.90;999.90;;;11.30;99.90;;;;;;6674295;88;20249;-78
2023/01/06 18:58:20;;;;;;;1999.90;999.90;;;11.30;99.90;;;;;;6650565;88;20235;-78
2023/01/06 19:08:31;;;;;;;1999.90;999.90;;;11.40;99.90;;;;;;6651542;88;20212;-78
2023/01/06 19:18:32;;;;;;;1999.90;999.90;;;11.40;99.90;;;;;;6653050;88;20179;-79
2023/01/06 19:28:35;;;;;;;1999.90;999.90;;;11.20;99.90;;;;;;6655632;88;20259;-78
2023/01/06 19:38:42;;;;;;;1999.90;999.90;;;11.20;99.90;;;;;;6652092;88;20204;-76
2023/01/06 19:48:44;;;;;;;1999.90;999.90;;;11.10;99.90;;;;;;6666388;88;21082;-77
2023/01/06 19:58:59;;;;;;;1999.90;999.90;;;11.20;99.90;;;;;;6672644;88;20585;-77
2023/01/06 20:08:59;;;;;;;1999.90;999.90;;;11.20;99.90;;;;;;6655965;88;20700;-76
2023/01/06 20:19:00;;;;;;;1999.90;999.90;;;11.20;99.90;;;;;;6659698;88;20192;-78
2023/01/06 20:29:03;;;;;;;1999.90;999.90;;;11.20;99.90;;;;;;6660416;88;20226;-78
2023/01/06 20:39:03;;;;;;;1999.90;999.90;;;11.40;99.90;;;;;;6664143;88;20190;-78
2023/01/06 20:49:04;;;;;;;1999.90;999.90;;;11.40;99.90;;;;;;6663555;88;20255;-78
2023/01/06 20:59:04;;;;;;;1999.90;999.90;;;11.50;99.90;;;;;;6674679;88;20231;-76
2023/01/06 21:09:05;;;;;;;1999.90;999.90;;;11.50;99.90;;;;;;6660902;88;20704;-77
2023/01/06 21:19:05;;;;;;;1999.90;999.90;;;11.60;99.90;;;;;;6659569;89;20569;-77
2023/01/06 21:29:06;;;;;;;1999.90;999.90;;;11.50;99.90;;;;;;6651885;88;20205;-77
2023/01/06 21:39:08;;;;;;;1999.90;999.90;;;11.50;99.90;;;;;;6655789;88;20240;-77
2023/01/06 21:49:08;;;;;;;1999.90;999.90;;;11.40;99.90;;;;;;6667967;88;20848;-76
2023/01/06 21:59:09;;;;;;;1999.90;999.90;;;11.40;99.90;;;;;;6670220;88;20192;-76
2023/01/06 22:09:13;;;;;;;1999.90;999.90;;;11.40;99.90;;;;;;6657697;88;20233;-77
2023/01/06 22:19:14;;;;;;;1999.90;999.90;;;11.50;99.90;;;;;;6661722;88;20609;-77
2023/01/06 22:29:14;;;;;;;1999.90;999.90;;;11.40;99.90;;;;;;6658761;88;20207;-76
2023/01/06 22:39:15;;;;;;;1999.90;999.90;;;11.30;99.90;;;;;;6657475;89;20209;-77
2023/01/06 22:49:15;;;;;;;1999.90;999.90;;;11.20;99.90;;;;;;6653047;89;20752;-77
2023/01/06 22:59:16;;;;;;;1999.90;999.90;;;11.20;99.90;;;;;;6653053;88;20661;-77
2023/01/06 23:09:17;;;;;;;1999.90;999.90;;;11.20;99.90;;;;;;6650598;88;20231;-77
2023/01/06 23:19:18;;;;;;;1999.90;999.90;;;11.10;99.90;;;;;;6652698;88;20210;-77
2023/01/06 23:29:18;;;;;;;1999.90;999.90;;;11.10;99.90;;;;;;6672234;88;20927;-77
2023/01/06 23:39:19;;;;;;;1999.90;999.90;;;11.10;99.90;;;;;;6658814;89;20232;-77
2023/01/06 23:49:19;;;;;;;1999.90;999.90;;;11.10;99.90;;;;;;6661730;88;20184;-77
2023/01/06 23:59:20;;;;;;;1999.90;999.90;;;11.00;99.90;;;;;;6661263;88;20227;-77
